sensor_id;sensor_type;location;lat;lon;timestamp;temperature;humidity
73586;DHT22;61865;50.232;18.614;2022-10-18T00:01:06;7.10;99.90
73586;DHT22;61865;50.232;18.614;2022-10-18T00:03:28;7.00;99.90
73586;DHT22;61865;50.232;18.614;2022-10-18T00:05:50;7.00;99.90
73586;DHT22;61865;50.232;18.614;2022-10-18T00:08:12;7.00;99.90
73586;DHT22;61865;50.232;18.614;2022-10-18T00:10:34;7.00;99.90
73586;DHT22;61865;50.232;18.614;2022-10-18T00:12:57;7.00;99.90
73586;DHT22;61865;50.232;18.614;2022-10-18T00:15:19;7.00;99.90
73586;DHT22;61865;50.232;18.614;2022-10-18T00:17:41;6.90;99.90
73586;DHT22;61865;50.232;18.614;2022-10-18T00:20:04;6.90;99.90
73586;DHT22;61865;50.232;18.614;2022-10-18T00:22:26;6.80;99.90
73586;DHT22;61865;50.232;18.614;2022-10-18T00:24:48;6.90;99.90
73586;DHT22;61865;50.232;18.614;2022-10-18T00:27:10;6.90;99.90
73586;DHT22;61865;50.232;18.614;2022-10-18T00:29:34;6.80;99.90
73586;DHT22;61865;50.232;18.614;2022-10-18T00:31:55;6.70;99.90
73586;DHT22;61865;50.232;18.614;2022-10-18T00:34:17;6.60;99.90
73586;DHT22;61865;50.232;18.614;2022-10-18T00:36:40;6.60;99.90
73586;DHT22;61865;50.232;18.614;2022-10-18T00:39:04;6.60;99.90
73586;DHT22;61865;50.232;18.614;2022-10-18T00:41:28;6.60;99.90
73586;DHT22;61865;50.232;18.614;2022-10-18T00:43:55;6.60;99.90
73586;DHT22;61865;50.232;18.614;2022-10-18T00:46:18;6.50;99.90
73586;DHT22;61865;50.232;18.614;2022-10-18T00:48:40;6.50;99.90
73586;DHT22;61865;50.232;18.614;2022-10-18T00:51:02;6.40;99.90
73586;DHT22;61865;50.232;18.614;2022-10-18T00:53:24;6.40;99.90
73586;DHT22;61865;50.232;18.614;2022-10-18T00:55:46;6.40;99.90
73586;DHT22;61865;50.232;18.614;2022-10-18T00:58:08;6.30;99.90
73586;DHT22;61865;50.232;18.614;2022-10-18T01:00:31;6.20;99.90
73586;DHT22;61865;50.232;18.614;2022-10-18T01:02:59;6.20;99.90
73586;DHT22;61865;50.232;18.614;2022-10-18T01:05:21;6.10;99.90
73586;DHT22;61865;50.232;18.614;2022-10-18T01:08:10;6.00;99.90
73586;DHT22;61865;50.232;18.614;2022-10-18T01:10:41;5.90;99.90
73586;DHT22;61865;50.232;18.614;2022-10-18T01:13:24;5.90;99.90
73586;DHT22;61865;50.232;18.614;2022-10-18T01:15:55;6.00;99.90
73586;DHT22;61865;50.232;18.614;2022-10-18T01:18:24;6.00;99.90
73586;DHT22;61865;50.232;18.614;2022-10-18T01:21:20;5.90;99.90
73586;DHT22;61865;50.232;18.614;2022-10-18T01:24:11;5.90;99.90
73586;DHT22;61865;50.232;18.614;2022-10-18T01:26:51;5.90;99.90
73586;DHT22;61865;50.232;18.614;2022-10-18T01:29:21;6.00;99.90
73586;DHT22;61865;50.232;18.614;2022-10-18T01:31:54;6.00;99.90
73586;DHT22;61865;50.232;18.614;2022-10-18T01:34:18;6.00;99.90
73586;DHT22;61865;50.232;18.614;2022-10-18T01:36:43;6.00;99.90
73586;DHT22;61865;50.232;18.614;2022-10-18T01:39:08;6.00;99.90
73586;DHT22;61865;50.232;18.614;2022-10-18T01:41:33;6.00;99.90
73586;DHT22;61865;50.232;18.614;2022-10-18T01:43:58;6.00;99.90
73586;DHT22;61865;50.232;18.614;2022-10-18T01:46:23;6.00;99.90
73586;DHT22;61865;50.232;18.614;2022-10-18T01:48:47;6.00;99.90
73586;DHT22;61865;50.232;18.614;2022-10-18T01:51:10;6.00;99.90
73586;DHT22;61865;50.232;18.614;2022-10-18T01:53:33;6.00;99.90
73586;DHT22;61865;50.232;18.614;2022-10-18T01:56:10;6.00;99.90
73586;DHT22;61865;50.232;18.614;2022-10-18T01:58:37;6.00;99.90
73586;DHT22;61865;50.232;18.614;2022-10-18T02:01:07;5.90;99.90
73586;DHT22;61865;50.232;18.614;2022-10-18T02:03:33;5.90;99.90
73586;DHT22;61865;50.232;18.614;2022-10-18T02:06:04;5.90;99.90
73586;DHT22;61865;50.232;18.614;2022-10-18T02:08:31;5.90;99.90
73586;DHT22;61865;50.232;18.614;2022-10-18T02:10:57;5.90;99.90
73586;DHT22;61865;50.232;18.614;2022-10-18T02:13:22;6.00;99.90
73586;DHT22;61865;50.232;18.614;2022-10-18T02:15:48;6.10;99.90
73586;DHT22;61865;50.232;18.614;2022-10-18T02:18:13;6.10;99.90
73586;DHT22;61865;50.232;18.614;2022-10-18T02:20:37;6.00;99.90
73586;DHT22;61865;50.232;18.614;2022-10-18T02:23:02;5.90;99.90
73586;DHT22;61865;50.232;18.614;2022-10-18T02:25:29;5.90;99.90
73586;DHT22;61865;50.232;18.614;2022-10-18T02:27:51;5.90;99.90
73586;DHT22;61865;50.232;18.614;2022-10-18T02:30:14;5.80;99.90
73586;DHT22;61865;50.232;18.614;2022-10-18T02:32:40;5.90;99.90
73586;DHT22;61865;50.232;18.614;2022-10-18T02:35:05;6.00;99.90
73586;DHT22;61865;50.232;18.614;2022-10-18T02:37:31;5.90;99.90
73586;DHT22;61865;50.232;18.614;2022-10-18T02:39:56;5.90;99.90
73586;DHT22;61865;50.232;18.614;2022-10-18T02:42:18;6.00;99.90
73586;DHT22;61865;50.232;18.614;2022-10-18T02:44:40;6.00;99.90
73586;DHT22;61865;50.232;18.614;2022-10-18T02:47:02;6.10;99.90
73586;DHT22;61865;50.232;18.614;2022-10-18T02:49:25;6.00;99.90
73586;DHT22;61865;50.232;18.614;2022-10-18T02:51:46;6.00;99.90
73586;DHT22;61865;50.232;18.614;2022-10-18T02:54:08;6.00;99.90
73586;DHT22;61865;50.232;18.614;2022-10-18T02:56:32;6.00;99.90
73586;DHT22;61865;50.232;18.614;2022-10-18T02:58:54;6.00;99.90
73586;DHT22;61865;50.232;18.614;2022-10-18T03:01:15;6.00;99.90
73586;DHT22;61865;50.232;18.614;2022-10-18T03:03:37;6.00;99.90
73586;DHT22;61865;50.232;18.614;2022-10-18T03:05:59;6.00;99.90
73586;DHT22;61865;50.232;18.614;2022-10-18T03:08:21;6.00;99.90
73586;DHT22;61865;50.232;18.614;2022-10-18T03:10:43;5.90;99.90
73586;DHT22;61865;50.232;18.614;2022-10-18T03:13:06;5.90;99.90
73586;DHT22;61865;50.232;18.614;2022-10-18T03:15:28;5.90;99.90
73586;DHT22;61865;50.232;18.614;2022-10-18T03:17:50;5.90;99.90
73586;DHT22;61865;50.232;18.614;2022-10-18T03:20:12;5.90;99.90
73586;DHT22;61865;50.232;18.614;2022-10-18T03:22:34;5.80;99.90
73586;DHT22;61865;50.232;18.614;2022-10-18T03:24:56;5.80;99.90
73586;DHT22;61865;50.232;18.614;2022-10-18T03:27:17;5.90;99.90
73586;DHT22;61865;50.232;18.614;2022-10-18T03:29:41;5.90;99.90
73586;DHT22;61865;50.232;18.614;2022-10-18T03:32:03;5.90;99.90
73586;DHT22;61865;50.232;18.614;2022-10-18T03:34:24;5.90;99.90
73586;DHT22;61865;50.232;18.614;2022-10-18T03:36:46;5.90;99.90
73586;DHT22;61865;50.232;18.614;2022-10-18T03:39:10;5.90;99.90
73586;DHT22;61865;50.232;18.614;2022-10-18T03:41:32;6.00;99.90
73586;DHT22;61865;50.232;18.614;2022-10-18T03:43:53;6.00;99.90
73586;DHT22;61865;50.232;18.614;2022-10-18T03:46:17;6.00;99.90
73586;DHT22;61865;50.232;18.614;2022-10-18T03:48:38;6.00;99.90
73586;DHT22;61865;50.232;18.614;2022-10-18T03:51:02;6.00;99.90
73586;DHT22;61865;50.232;18.614;2022-10-18T03:53:24;5.90;99.90
73586;DHT22;61865;50.232;18.614;2022-10-18T03:55:49;5.80;99.90
73586;DHT22;61865;50.232;18.614;2022-10-18T03:58:11;5.90;99.90
73586;DHT22;61865;50.232;18.614;2022-10-18T04:00:33;6.00;99.90
73586;DHT22;61865;50.232;18.614;2022-10-18T04:02:57;6.00;99.90
73586;DHT22;61865;50.232;18.614;2022-10-18T04:05:19;6.00;99.90
73586;DHT22;61865;50.232;18.614;2022-10-18T04:07:40;6.00;99.90
73586;DHT22;61865;50.232;18.614;2022-10-18T04:10:02;6.00;99.90
73586;DHT22;61865;50.232;18.614;2022-10-18T04:12:24;5.90;99.90
73586;DHT22;61865;50.232;18.614;2022-10-18T04:14:46;5.90;99.90
73586;DHT22;61865;50.232;18.614;2022-10-18T04:17:08;6.00;99.90
73586;DHT22;61865;50.232;18.614;2022-10-18T04:19:31;6.10;99.90
73586;DHT22;61865;50.232;18.614;2022-10-18T04:21:53;6.30;99.90
73586;DHT22;61865;50.232;18.614;2022-10-18T04:24:16;6.50;99.90
73586;DHT22;61865;50.232;18.614;2022-10-18T04:26:38;6.60;99.90
73586;DHT22;61865;50.232;18.614;2022-10-18T04:28:59;6.70;99.90
73586;DHT22;61865;50.232;18.614;2022-10-18T04:31:21;6.80;99.90
73586;DHT22;61865;50.232;18.614;2022-10-18T04:33:43;6.90;99.90
73586;DHT22;61865;50.232;18.614;2022-10-18T04:36:06;6.90;99.90
73586;DHT22;61865;50.232;18.614;2022-10-18T04:38:28;6.70;99.90
73586;DHT22;61865;50.232;18.614;2022-10-18T04:40:50;6.70;99.90
73586;DHT22;61865;50.232;18.614;2022-10-18T04:43:12;6.80;99.90
73586;DHT22;61865;50.232;18.614;2022-10-18T04:45:34;6.70;99.90
73586;DHT22;61865;50.232;18.614;2022-10-18T04:47:56;6.80;99.90
73586;DHT22;61865;50.232;18.614;2022-10-18T04:50:18;6.90;99.90
73586;DHT22;61865;50.232;18.614;2022-10-18T04:52:41;6.90;99.90
73586;DHT22;61865;50.232;18.614;2022-10-18T04:55:03;6.90;99.90
73586;DHT22;61865;50.232;18.614;2022-10-18T04:57:25;6.80;99.90
73586;DHT22;61865;50.232;18.614;2022-10-18T04:59:47;6.90;99.90
73586;DHT22;61865;50.232;18.614;2022-10-18T05:02:09;6.90;99.90
73586;DHT22;61865;50.232;18.614;2022-10-18T05:04:31;6.90;99.90
73586;DHT22;61865;50.232;18.614;2022-10-18T05:06:53;6.90;99.90
73586;DHT22;61865;50.232;18.614;2022-10-18T05:09:16;6.90;99.90
73586;DHT22;61865;50.232;18.614;2022-10-18T05:11:38;6.80;99.90
73586;DHT22;61865;50.232;18.614;2022-10-18T05:13:59;6.70;99.90
73586;DHT22;61865;50.232;18.614;2022-10-18T05:16:21;6.70;99.90
73586;DHT22;61865;50.232;18.614;2022-10-18T05:18:43;6.70;99.90
73586;DHT22;61865;50.232;18.614;2022-10-18T05:21:05;6.70;99.90
73586;DHT22;61865;50.232;18.614;2022-10-18T05:23:27;6.70;99.90
73586;DHT22;61865;50.232;18.614;2022-10-18T05:25:52;6.70;99.90
73586;DHT22;61865;50.232;18.614;2022-10-18T05:28:14;6.80;99.90
73586;DHT22;61865;50.232;18.614;2022-10-18T05:30:36;6.80;99.90
73586;DHT22;61865;50.232;18.614;2022-10-18T05:32:58;6.80;99.90
73586;DHT22;61865;50.232;18.614;2022-10-18T05:35:20;6.80;99.90
73586;DHT22;61865;50.232;18.614;2022-10-18T05:37:42;6.80;99.90
73586;DHT22;61865;50.232;18.614;2022-10-18T05:40:05;6.80;99.90
73586;DHT22;61865;50.232;18.614;2022-10-18T05:42:28;6.90;99.90
73586;DHT22;61865;50.232;18.614;2022-10-18T05:44:50;6.90;99.90
73586;DHT22;61865;50.232;18.614;2022-10-18T05:47:12;6.90;99.90
73586;DHT22;61865;50.232;18.614;2022-10-18T05:49:33;6.90;99.90
73586;DHT22;61865;50.232;18.614;2022-10-18T05:51:55;7.00;99.90
73586;DHT22;61865;50.232;18.614;2022-10-18T05:54:17;7.00;99.90
73586;DHT22;61865;50.232;18.614;2022-10-18T05:56:40;7.10;99.90
73586;DHT22;61865;50.232;18.614;2022-10-18T05:59:04;7.20;99.90
73586;DHT22;61865;50.232;18.614;2022-10-18T06:01:29;7.30;99.90
73586;DHT22;61865;50.232;18.614;2022-10-18T06:03:51;7.40;99.90
73586;DHT22;61865;50.232;18.614;2022-10-18T06:06:14;7.50;99.90
73586;DHT22;61865;50.232;18.614;2022-10-18T06:08:37;7.50;99.90
73586;DHT22;61865;50.232;18.614;2022-10-18T06:10:59;7.60;99.90
73586;DHT22;61865;50.232;18.614;2022-10-18T06:13:21;7.70;99.90
73586;DHT22;61865;50.232;18.614;2022-10-18T06:15:44;7.80;99.90
73586;DHT22;61865;50.232;18.614;2022-10-18T06:18:06;7.90;99.90
73586;DHT22;61865;50.232;18.614;2022-10-18T06:20:28;8.00;99.90
73586;DHT22;61865;50.232;18.614;2022-10-18T06:22:51;8.20;99.90
73586;DHT22;61865;50.232;18.614;2022-10-18T06:25:13;8.30;99.90
73586;DHT22;61865;50.232;18.614;2022-10-18T06:27:35;8.40;99.90
73586;DHT22;61865;50.232;18.614;2022-10-18T06:29:57;8.50;99.90
73586;DHT22;61865;50.232;18.614;2022-10-18T06:32:20;8.60;99.90
73586;DHT22;61865;50.232;18.614;2022-10-18T06:34:42;8.80;99.90
73586;DHT22;61865;50.232;18.614;2022-10-18T06:37:04;8.90;99.90
73586;DHT22;61865;50.232;18.614;2022-10-18T06:39:26;9.10;99.90
73586;DHT22;61865;50.232;18.614;2022-10-18T06:41:48;9.20;99.90
73586;DHT22;61865;50.232;18.614;2022-10-18T06:44:10;9.40;99.90
73586;DHT22;61865;50.232;18.614;2022-10-18T06:46:33;9.60;99.90
73586;DHT22;61865;50.232;18.614;2022-10-18T06:48:56;9.80;99.90
73586;DHT22;61865;50.232;18.614;2022-10-18T06:51:18;9.90;99.90
73586;DHT22;61865;50.232;18.614;2022-10-18T06:53:40;10.10;99.90
73586;DHT22;61865;50.232;18.614;2022-10-18T06:56:04;10.20;99.90
73586;DHT22;61865;50.232;18.614;2022-10-18T06:58:27;10.30;99.90
73586;DHT22;61865;50.232;18.614;2022-10-18T07:00:49;10.40;99.90
73586;DHT22;61865;50.232;18.614;2022-10-18T07:03:11;10.60;99.90
73586;DHT22;61865;50.232;18.614;2022-10-18T07:05:34;10.70;99.90
73586;DHT22;61865;50.232;18.614;2022-10-18T07:07:56;10.90;99.90
73586;DHT22;61865;50.232;18.614;2022-10-18T07:10:18;11.00;99.90
73586;DHT22;61865;50.232;18.614;2022-10-18T07:12:39;11.20;99.90
73586;DHT22;61865;50.232;18.614;2022-10-18T07:15:01;11.30;99.90
73586;DHT22;61865;50.232;18.614;2022-10-18T07:17:23;11.40;99.90
73586;DHT22;61865;50.232;18.614;2022-10-18T07:19:45;11.60;99.90
73586;DHT22;61865;50.232;18.614;2022-10-18T07:22:08;11.70;99.90
73586;DHT22;61865;50.232;18.614;2022-10-18T07:24:30;11.90;99.90
73586;DHT22;61865;50.232;18.614;2022-10-18T07:26:52;12.10;99.90
73586;DHT22;61865;50.232;18.614;2022-10-18T07:29:14;12.20;99.90
73586;DHT22;61865;50.232;18.614;2022-10-18T07:31:36;12.30;99.90
73586;DHT22;61865;50.232;18.614;2022-10-18T07:33:58;12.40;99.90
73586;DHT22;61865;50.232;18.614;2022-10-18T07:36:20;12.70;99.90
73586;DHT22;61865;50.232;18.614;2022-10-18T07:38:44;12.80;99.90
73586;DHT22;61865;50.232;18.614;2022-10-18T07:41:07;12.90;99.90
73586;DHT22;61865;50.232;18.614;2022-10-18T07:43:29;13.10;99.90
73586;DHT22;61865;50.232;18.614;2022-10-18T07:45:51;13.30;99.90
73586;DHT22;61865;50.232;18.614;2022-10-18T07:48:13;13.40;99.90
73586;DHT22;61865;50.232;18.614;2022-10-18T07:50:35;13.50;99.90
73586;DHT22;61865;50.232;18.614;2022-10-18T07:52:57;13.60;99.90
73586;DHT22;61865;50.232;18.614;2022-10-18T07:55:20;13.80;99.90
73586;DHT22;61865;50.232;18.614;2022-10-18T07:57:42;14.00;99.90
73586;DHT22;61865;50.232;18.614;2022-10-18T08:00:05;14.00;99.90
73586;DHT22;61865;50.232;18.614;2022-10-18T08:02:28;14.20;99.90
73586;DHT22;61865;50.232;18.614;2022-10-18T08:04:50;14.30;99.90
73586;DHT22;61865;50.232;18.614;2022-10-18T08:07:12;14.30;99.90
73586;DHT22;61865;50.232;18.614;2022-10-18T08:09:34;14.40;99.90
73586;DHT22;61865;50.232;18.614;2022-10-18T08:11:57;14.50;99.90
73586;DHT22;61865;50.232;18.614;2022-10-18T08:14:18;14.60;99.90
73586;DHT22;61865;50.232;18.614;2022-10-18T08:16:40;14.80;97.80
73586;DHT22;61865;50.232;18.614;2022-10-18T08:19:02;14.90;99.50
73586;DHT22;61865;50.232;18.614;2022-10-18T08:21:25;15.00;97.90
73586;DHT22;61865;50.232;18.614;2022-10-18T08:23:47;15.10;98.20
73586;DHT22;61865;50.232;18.614;2022-10-18T08:26:11;15.20;94.10
73586;DHT22;61865;50.232;18.614;2022-10-18T08:28:34;15.30;92.40
73586;DHT22;61865;50.232;18.614;2022-10-18T08:31:00;15.40;93.20
73586;DHT22;61865;50.232;18.614;2022-10-18T08:33:22;15.50;90.00
73586;DHT22;61865;50.232;18.614;2022-10-18T08:35:53;15.50;86.30
73586;DHT22;61865;50.232;18.614;2022-10-18T08:38:15;15.60;89.70
73586;DHT22;61865;50.232;18.614;2022-10-18T08:40:41;15.70;85.50
73586;DHT22;61865;50.232;18.614;2022-10-18T08:43:07;15.80;83.80
73586;DHT22;61865;50.232;18.614;2022-10-18T08:45:36;15.80;87.50
73586;DHT22;61865;50.232;18.614;2022-10-18T08:48:03;15.80;83.50
73586;DHT22;61865;50.232;18.614;2022-10-18T08:50:29;15.90;76.80
73586;DHT22;61865;50.232;18.614;2022-10-18T08:52:58;16.00;79.10
73586;DHT22;61865;50.232;18.614;2022-10-18T08:55:23;16.00;78.50
73586;DHT22;61865;50.232;18.614;2022-10-18T08:57:45;16.10;74.50
73586;DHT22;61865;50.232;18.614;2022-10-18T09:00:14;16.20;72.50
73586;DHT22;61865;50.232;18.614;2022-10-18T09:02:49;16.30;77.70
73586;DHT22;61865;50.232;18.614;2022-10-18T09:05:21;16.40;72.90
73586;DHT22;61865;50.232;18.614;2022-10-18T09:10:40;16.40;71.80
73586;DHT22;61865;50.232;18.614;2022-10-18T09:13:15;16.40;73.70
73586;DHT22;61865;50.232;18.614;2022-10-18T09:15:44;16.60;71.70
73586;DHT22;61865;50.232;18.614;2022-10-18T09:18:24;16.70;69.50
73586;DHT22;61865;50.232;18.614;2022-10-18T09:20:52;16.60;69.80
73586;DHT22;61865;50.232;18.614;2022-10-18T09:23:19;16.80;67.00
73586;DHT22;61865;50.232;18.614;2022-10-18T09:25:44;16.80;66.70
73586;DHT22;61865;50.232;18.614;2022-10-18T09:28:15;16.80;68.70
73586;DHT22;61865;50.232;18.614;2022-10-18T09:30:42;16.80;68.10
73586;DHT22;61865;50.232;18.614;2022-10-18T09:33:22;16.80;67.60
73586;DHT22;61865;50.232;18.614;2022-10-18T09:35:49;16.90;66.60
73586;DHT22;61865;50.232;18.614;2022-10-18T09:38:16;17.00;66.30
73586;DHT22;61865;50.232;18.614;2022-10-18T09:40:47;17.10;64.70
73586;DHT22;61865;50.232;18.614;2022-10-18T09:43:16;17.10;64.20
73586;DHT22;61865;50.232;18.614;2022-10-18T09:45:42;17.20;61.70
73586;DHT22;61865;50.232;18.614;2022-10-18T09:48:08;17.30;62.30
73586;DHT22;61865;50.232;18.614;2022-10-18T09:50:35;17.40;61.30
73586;DHT22;61865;50.232;18.614;2022-10-18T09:53:12;17.50;60.50
73586;DHT22;61865;50.232;18.614;2022-10-18T09:55:39;17.60;60.00
73586;DHT22;61865;50.232;18.614;2022-10-18T09:58:05;17.60;60.80
73586;DHT22;61865;50.232;18.614;2022-10-18T10:00:30;17.60;61.00
73586;DHT22;61865;50.232;18.614;2022-10-18T10:02:53;17.70;61.60
73586;DHT22;61865;50.232;18.614;2022-10-18T10:05:15;17.70;59.90
73586;DHT22;61865;50.232;18.614;2022-10-18T10:07:43;17.80;60.90
73586;DHT22;61865;50.232;18.614;2022-10-18T10:10:12;17.80;60.90
73586;DHT22;61865;50.232;18.614;2022-10-18T10:12:37;17.80;61.10
73586;DHT22;61865;50.232;18.614;2022-10-18T10:15:08;17.90;60.50
73586;DHT22;61865;50.232;18.614;2022-10-18T10:17:30;17.90;61.00
73586;DHT22;61865;50.232;18.614;2022-10-18T10:19:57;18.00;60.30
73586;DHT22;61865;50.232;18.614;2022-10-18T10:22:26;18.00;59.10
73586;DHT22;61865;50.232;18.614;2022-10-18T10:24:51;18.10;59.00
73586;DHT22;61865;50.232;18.614;2022-10-18T10:27:18;18.10;59.60
73586;DHT22;61865;50.232;18.614;2022-10-18T10:29:56;18.10;59.60
73586;DHT22;61865;50.232;18.614;2022-10-18T10:32:20;18.10;59.20
73586;DHT22;61865;50.232;18.614;2022-10-18T10:34:42;18.10;60.30
73586;DHT22;61865;50.232;18.614;2022-10-18T10:37:22;18.20;59.00
73586;DHT22;61865;50.232;18.614;2022-10-18T10:39:44;18.30;58.10
73586;DHT22;61865;50.232;18.614;2022-10-18T10:42:12;18.30;57.90
73586;DHT22;61865;50.232;18.614;2022-10-18T10:44:35;18.30;58.90
73586;DHT22;61865;50.232;18.614;2022-10-18T10:46:59;18.40;58.90
73586;DHT22;61865;50.232;18.614;2022-10-18T10:49:22;18.40;58.40
73586;DHT22;61865;50.232;18.614;2022-10-18T10:51:52;18.40;58.00
73586;DHT22;61865;50.232;18.614;2022-10-18T10:54:16;18.50;57.20
73586;DHT22;61865;50.232;18.614;2022-10-18T10:56:57;18.50;57.70
73586;DHT22;61865;50.232;18.614;2022-10-18T10:59:21;18.50;57.60
73586;DHT22;61865;50.232;18.614;2022-10-18T11:01:46;18.50;57.50
73586;DHT22;61865;50.232;18.614;2022-10-18T11:04:24;18.60;57.60
73586;DHT22;61865;50.232;18.614;2022-10-18T11:06:54;18.60;57.20
73586;DHT22;61865;50.232;18.614;2022-10-18T11:09:29;18.60;57.50
73586;DHT22;61865;50.232;18.614;2022-10-18T11:12:02;18.70;56.80
73586;DHT22;61865;50.232;18.614;2022-10-18T11:14:29;18.60;57.70
73586;DHT22;61865;50.232;18.614;2022-10-18T11:16:57;18.70;57.90
73586;DHT22;61865;50.232;18.614;2022-10-18T11:19:31;18.70;58.40
73586;DHT22;61865;50.232;18.614;2022-10-18T11:21:55;18.80;56.80
73586;DHT22;61865;50.232;18.614;2022-10-18T11:24:18;18.80;56.90
73586;DHT22;61865;50.232;18.614;2022-10-18T11:26:47;18.80;56.80
73586;DHT22;61865;50.232;18.614;2022-10-18T11:29:42;18.90;56.90
73586;DHT22;61865;50.232;18.614;2022-10-18T11:32:12;18.90;56.90
73586;DHT22;61865;50.232;18.614;2022-10-18T11:34:50;18.90;57.40
73586;DHT22;61865;50.232;18.614;2022-10-18T11:37:29;19.00;56.40
73586;DHT22;61865;50.232;18.614;2022-10-18T11:40:03;19.00;57.00
73586;DHT22;61865;50.232;18.614;2022-10-18T11:42:33;19.00;56.60
73586;DHT22;61865;50.232;18.614;2022-10-18T11:45:05;19.00;56.90
73586;DHT22;61865;50.232;18.614;2022-10-18T11:47:35;19.00;57.40
73586;DHT22;61865;50.232;18.614;2022-10-18T11:50:07;19.10;56.90
73586;DHT22;61865;50.232;18.614;2022-10-18T11:52:40;19.10;56.70
73586;DHT22;61865;50.232;18.614;2022-10-18T11:55:18;19.20;56.30
73586;DHT22;61865;50.232;18.614;2022-10-18T11:57:52;19.20;56.70
73586;DHT22;61865;50.232;18.614;2022-10-18T12:00:42;19.20;56.30
73586;DHT22;61865;50.232;18.614;2022-10-18T12:03:27;19.20;56.20
73586;DHT22;61865;50.232;18.614;2022-10-18T12:05:55;19.30;56.10
73586;DHT22;61865;50.232;18.614;2022-10-18T12:08:22;19.30;56.60
73586;DHT22;61865;50.232;18.614;2022-10-18T12:10:49;19.30;56.80
73586;DHT22;61865;50.232;18.614;2022-10-18T12:13:16;19.40;55.80
73586;DHT22;61865;50.232;18.614;2022-10-18T12:15:40;19.40;55.50
73586;DHT22;61865;50.232;18.614;2022-10-18T12:18:06;19.40;56.00
73586;DHT22;61865;50.232;18.614;2022-10-18T12:20:31;19.40;56.00
73586;DHT22;61865;50.232;18.614;2022-10-18T12:22:59;19.40;56.00
73586;DHT22;61865;50.232;18.614;2022-10-18T12:25:22;19.40;56.10
73586;DHT22;61865;50.232;18.614;2022-10-18T12:27:49;19.50;56.30
73586;DHT22;61865;50.232;18.614;2022-10-18T12:30:17;19.50;55.60
73586;DHT22;61865;50.232;18.614;2022-10-18T12:32:43;19.50;56.20
73586;DHT22;61865;50.232;18.614;2022-10-18T12:35:09;19.50;57.20
73586;DHT22;61865;50.232;18.614;2022-10-18T12:40:35;19.60;56.50
73586;DHT22;61865;50.232;18.614;2022-10-18T12:42:57;19.60;56.00
73586;DHT22;61865;50.232;18.614;2022-10-18T12:45:26;19.50;56.50
73586;DHT22;61865;50.232;18.614;2022-10-18T12:47:51;19.50;55.90
73586;DHT22;61865;50.232;18.614;2022-10-18T12:50:32;19.60;56.60
73586;DHT22;61865;50.232;18.614;2022-10-18T12:53:00;19.60;56.50
73586;DHT22;61865;50.232;18.614;2022-10-18T12:55:33;19.60;56.20
73586;DHT22;61865;50.232;18.614;2022-10-18T12:58:24;19.60;56.50
73586;DHT22;61865;50.232;18.614;2022-10-18T13:00:54;19.60;57.70
73586;DHT22;61865;50.232;18.614;2022-10-18T13:06:21;19.70;56.20
73586;DHT22;61865;50.232;18.614;2022-10-18T13:08:44;19.70;56.00
73586;DHT22;61865;50.232;18.614;2022-10-18T13:11:32;19.70;56.10
73586;DHT22;61865;50.232;18.614;2022-10-18T13:14:14;19.70;56.50
73586;DHT22;61865;50.232;18.614;2022-10-18T13:16:42;19.70;57.80
73586;DHT22;61865;50.232;18.614;2022-10-18T13:19:18;19.70;56.90
73586;DHT22;61865;50.232;18.614;2022-10-18T13:21:46;19.70;57.40
73586;DHT22;61865;50.232;18.614;2022-10-18T13:24:32;19.80;56.50
73586;DHT22;61865;50.232;18.614;2022-10-18T13:27:12;19.70;56.50
73586;DHT22;61865;50.232;18.614;2022-10-18T13:29:52;19.70;56.60
73586;DHT22;61865;50.232;18.614;2022-10-18T13:32:24;19.70;56.50
73586;DHT22;61865;50.232;18.614;2022-10-18T13:34:50;19.70;56.80
73586;DHT22;61865;50.232;18.614;2022-10-18T13:37:19;19.70;56.30
73586;DHT22;61865;50.232;18.614;2022-10-18T13:39:43;19.70;55.70
73586;DHT22;61865;50.232;18.614;2022-10-18T13:42:28;19.70;58.10
73586;DHT22;61865;50.232;18.614;2022-10-18T13:44:50;19.70;57.40
73586;DHT22;61865;50.232;18.614;2022-10-18T13:47:13;19.70;58.50
73586;DHT22;61865;50.232;18.614;2022-10-18T13:52:55;19.70;56.10
73586;DHT22;61865;50.232;18.614;2022-10-18T13:55:35;19.80;56.40
73586;DHT22;61865;50.232;18.614;2022-10-18T13:58:08;19.80;56.10
73586;DHT22;61865;50.232;18.614;2022-10-18T14:00:42;19.70;56.70
73586;DHT22;61865;50.232;18.614;2022-10-18T14:03:46;19.80;56.60
73586;DHT22;61865;50.232;18.614;2022-10-18T14:06:13;19.70;56.80
73586;DHT22;61865;50.232;18.614;2022-10-18T14:08:41;19.70;57.00
73586;DHT22;61865;50.232;18.614;2022-10-18T14:11:14;19.70;56.70
73586;DHT22;61865;50.232;18.614;2022-10-18T14:13:42;19.70;57.20
73586;DHT22;61865;50.232;18.614;2022-10-18T14:16:09;19.70;57.60
73586;DHT22;61865;50.232;18.614;2022-10-18T14:18:33;19.60;57.30
73586;DHT22;61865;50.232;18.614;2022-10-18T14:21:00;19.60;57.80
73586;DHT22;61865;50.232;18.614;2022-10-18T14:23:28;19.50;58.20
73586;DHT22;61865;50.232;18.614;2022-10-18T14:26:00;19.40;58.30
73586;DHT22;61865;50.232;18.614;2022-10-18T14:28:26;19.40;58.30
73586;DHT22;61865;50.232;18.614;2022-10-18T14:30:53;19.30;58.70
73586;DHT22;61865;50.232;18.614;2022-10-18T14:33:27;19.30;59.10
73586;DHT22;61865;50.232;18.614;2022-10-18T14:35:58;19.20;59.70
73586;DHT22;61865;50.232;18.614;2022-10-18T14:38:20;19.20;59.90
73586;DHT22;61865;50.232;18.614;2022-10-18T14:40:42;19.20;60.00
73586;DHT22;61865;50.232;18.614;2022-10-18T14:43:10;19.00;60.50
73586;DHT22;61865;50.232;18.614;2022-10-18T14:45:32;19.00;60.40
73586;DHT22;61865;50.232;18.614;2022-10-18T14:47:54;19.00;61.40
73586;DHT22;61865;50.232;18.614;2022-10-18T14:50:26;19.00;61.80
73586;DHT22;61865;50.232;18.614;2022-10-18T14:52:49;18.90;61.50
73586;DHT22;61865;50.232;18.614;2022-10-18T14:55:16;18.80;61.80
73586;DHT22;61865;50.232;18.614;2022-10-18T14:57:39;18.80;62.10
73586;DHT22;61865;50.232;18.614;2022-10-18T15:00:06;18.70;62.60
73586;DHT22;61865;50.232;18.614;2022-10-18T15:02:29;18.60;63.10
73586;DHT22;61865;50.232;18.614;2022-10-18T15:04:57;18.50;62.80
73586;DHT22;61865;50.232;18.614;2022-10-18T15:07:19;18.40;63.60
73586;DHT22;61865;50.232;18.614;2022-10-18T15:09:42;18.40;63.90
73586;DHT22;61865;50.232;18.614;2022-10-18T15:12:05;18.30;64.40
73586;DHT22;61865;50.232;18.614;2022-10-18T15:14:28;18.20;64.70
73586;DHT22;61865;50.232;18.614;2022-10-18T15:17:00;18.10;65.00
73586;DHT22;61865;50.232;18.614;2022-10-18T15:19:27;18.00;66.20
73586;DHT22;61865;50.232;18.614;2022-10-18T15:21:54;17.90;66.80
73586;DHT22;61865;50.232;18.614;2022-10-18T15:24:27;17.80;67.00
73586;DHT22;61865;50.232;18.614;2022-10-18T15:26:49;17.70;68.20